Aeroporto :
LOGIN :

Iscrizione | Disclaimer

   EN    FR    IT 

 










Sommario :    VFR   VFR Marginale   IFR   IFR Intensivo   IFR Molto Intensivo
Visibilità : 
Base nubi : 
>= 8 km
>= 3000ft
5 / 8 km
1000 / 3000 ft
1500m / 5 km
500 / 1000 ft
800 / 1500m
200 / 500 ft
< 800m
< 200 ft
Simboli :   Temporali  Nebbia  Neve Forte  Precipitazioni Forti  Vento > 20 kt
SIGMETs :   Varie  Temporali  Ghiacco  Turbolenza  Onda orograficha  Ceneri Vulcaniche






- Altitudine del aeroporto : 47 ft
- Codice IATA : CBG


EGSC - Cambridge

ULTIMO METAR :
  • 221220Z 01004KT 3000 BR BKN003 07/06 Q1037

METARs OBSOLETI :
  • 221150Z VRB03KT 2200 BR BKN003 07/06 Q1037
  • 221120Z 31002KT 2000 BR OVC002 06/06 Q1038
  • 221050Z 33004KT 1500 BR OVC002 06/06 Q1038
  • 221020Z VRB03KT 1300 BR OVC002 06/06 Q1038
  • 220950Z VRB01KT 1500 BR OVC003 06/05 Q1038

TAF TAF EGSC
Valido dal 22 a 12 ore il 22 a 19 ore UTC


221110Z 2212/2219 VRB03KT 3000 BR BKN003
BECMG 2212/2215 6000 NSW BKN006
PROB30
TEMPO 2215/2218 SCT008



MetMap, La meteo Aeronautica in un colpo d'occhio ! - Copyright ORBIFLY Dicembre 2007 - Disclaimer

ORBIFLY MET'MAP TEAM :

Programmazione e sviluppo : Alexandra Zaïnal
Concezione : Baudouin d'Aumeries
Aiuto per la programmazione : Marc-Olivier Méhu
Supporto tecnico e logistico : Manuel Goepfert
Aiuto per la traduzione : Arnaldo La Scala

Contatto : metmap@orbifly.com




FONTI E CREDITI :

   NOAA